Terminal Aerodrome Forecast
Issued by NWS

Home | Current Version | Previous Version | Text Only | Print | Product List | Glossary On
Versions: 1 2 3 4 5 6 7 8 9 10 11 12 13 14 15 16 17 18 19
496
FTUS41 KBGM 210300 AAA
TAFELM
TAF AMD
KELM 210300Z 2103/2124 VRB03KT P6SM -RA OVC014
     FM210400 VRB03KT P6SM BKN008
      TEMPO 2104/2108 2SM BR BKN008
     FM210800 VRB03KT 2SM BR BKN008
     FM211300 VRB03KT P6SM BKN015
     FM212300 00000KT P6SM BKN012=

USA.gov is the U.S. government's official web portal to all federal, state and local government web resources and services.